sensor_id;sensor_type;location;lat;lon;timestamp;temperature;humidity
56298;DHT22;42208;6.376;-10.782;2023-03-13T00:00:05;27.40;99.90
56298;DHT22;42208;6.376;-10.782;2023-03-13T00:02:33;27.40;99.90
56298;DHT22;42208;6.376;-10.782;2023-03-13T00:05:01;27.40;99.90
56298;DHT22;42208;6.376;-10.782;2023-03-13T00:07:30;27.50;99.90
56298;DHT22;42208;6.376;-10.782;2023-03-13T00:09:58;27.40;99.90
56298;DHT22;42208;6.376;-10.782;2023-03-13T00:12:26;27.40;99.90
56298;DHT22;42208;6.376;-10.782;2023-03-13T00:14:55;27.40;99.90
56298;DHT22;42208;6.376;-10.782;2023-03-13T00:17:23;27.40;99.90
56298;DHT22;42208;6.376;-10.782;2023-03-13T00:19:51;27.40;99.90
56298;DHT22;42208;6.376;-10.782;2023-03-13T00:22:20;27.40;99.90
56298;DHT22;42208;6.376;-10.782;2023-03-13T00:24:48;27.40;99.90
56298;DHT22;42208;6.376;-10.782;2023-03-13T00:27:16;27.40;99.90
56298;DHT22;42208;6.376;-10.782;2023-03-13T00:29:44;27.40;99.90
56298;DHT22;42208;6.376;-10.782;2023-03-13T00:32:13;27.40;99.90
56298;DHT22;42208;6.376;-10.782;2023-03-13T00:34:41;27.40;99.90
56298;DHT22;42208;6.376;-10.782;2023-03-13T00:37:09;27.40;99.90
56298;DHT22;42208;6.376;-10.782;2023-03-13T00:39:38;27.40;99.90
56298;DHT22;42208;6.376;-10.782;2023-03-13T00:42:06;27.40;99.90
56298;DHT22;42208;6.376;-10.782;2023-03-13T00:44:34;27.40;99.90
56298;DHT22;42208;6.376;-10.782;2023-03-13T00:47:03;27.40;99.90
56298;DHT22;42208;6.376;-10.782;2023-03-13T00:49:31;27.40;99.90
56298;DHT22;42208;6.376;-10.782;2023-03-13T00:51:59;27.40;99.90
56298;DHT22;42208;6.376;-10.782;2023-03-13T00:54:28;27.40;99.90
56298;DHT22;42208;6.376;-10.782;2023-03-13T00:56:56;27.40;99.90
56298;DHT22;42208;6.376;-10.782;2023-03-13T00:59:24;27.40;99.90
56298;DHT22;42208;6.376;-10.782;2023-03-13T01:01:52;27.30;99.90
56298;DHT22;42208;6.376;-10.782;2023-03-13T01:04:21;27.30;99.90
56298;DHT22;42208;6.376;-10.782;2023-03-13T01:06:49;27.30;99.90
56298;DHT22;42208;6.376;-10.782;2023-03-13T01:09:18;27.20;99.90
56298;DHT22;42208;6.376;-10.782;2023-03-13T01:11:46;27.20;99.90
56298;DHT22;42208;6.376;-10.782;2023-03-13T01:14:17;27.10;99.90
56298;DHT22;42208;6.376;-10.782;2023-03-13T01:16:46;27.10;99.90
56298;DHT22;42208;6.376;-10.782;2023-03-13T01:19:15;27.10;99.90
56298;DHT22;42208;6.376;-10.782;2023-03-13T01:21:45;27.10;99.90
56298;DHT22;42208;6.376;-10.782;2023-03-13T01:24:13;27.00;99.90
56298;DHT22;42208;6.376;-10.782;2023-03-13T01:26:43;27.00;99.90
56298;DHT22;42208;6.376;-10.782;2023-03-13T01:29:11;26.90;99.90
56298;DHT22;42208;6.376;-10.782;2023-03-13T01:31:39;26.90;99.90
56298;DHT22;42208;6.376;-10.782;2023-03-13T01:34:10;26.70;99.90
56298;DHT22;42208;6.376;-10.782;2023-03-13T01:36:38;26.60;99.90
56298;DHT22;42208;6.376;-10.782;2023-03-13T01:39:06;26.60;99.90
56298;DHT22;42208;6.376;-10.782;2023-03-13T01:41:36;26.60;99.90
56298;DHT22;42208;6.376;-10.782;2023-03-13T01:44:17;26.60;99.90
56298;DHT22;42208;6.376;-10.782;2023-03-13T01:46:47;26.60;99.90
56298;DHT22;42208;6.376;-10.782;2023-03-13T01:49:30;26.60;99.90
56298;DHT22;42208;6.376;-10.782;2023-03-13T01:52:19;26.70;99.90
56298;DHT22;42208;6.376;-10.782;2023-03-13T01:55:02;26.60;99.90
56298;DHT22;42208;6.376;-10.782;2023-03-13T01:57:49;26.70;99.90
56298;DHT22;42208;6.376;-10.782;2023-03-13T02:00:23;26.60;99.90
56298;DHT22;42208;6.376;-10.782;2023-03-13T02:02:55;26.60;99.90
56298;DHT22;42208;6.376;-10.782;2023-03-13T02:05:26;26.60;99.90
56298;DHT22;42208;6.376;-10.782;2023-03-13T02:10:30;26.60;99.90
56298;DHT22;42208;6.376;-10.782;2023-03-13T02:13:02;26.60;99.90
56298;DHT22;42208;6.376;-10.782;2023-03-13T02:15:31;26.50;99.90
56298;DHT22;42208;6.376;-10.782;2023-03-13T02:17:59;26.50;99.90
56298;DHT22;42208;6.376;-10.782;2023-03-13T02:20:27;26.50;99.90
56298;DHT22;42208;6.376;-10.782;2023-03-13T02:23:57;26.50;99.90
56298;DHT22;42208;6.376;-10.782;2023-03-13T02:26:23;26.50;99.90
56298;DHT22;42208;6.376;-10.782;2023-03-13T02:28:51;26.60;99.90
56298;DHT22;42208;6.376;-10.782;2023-03-13T02:31:20;26.60;99.90
56298;DHT22;42208;6.376;-10.782;2023-03-13T02:33:48;26.60;99.90
56298;DHT22;42208;6.376;-10.782;2023-03-13T02:36:19;26.60;99.90
56298;DHT22;42208;6.376;-10.782;2023-03-13T02:39:01;26.60;99.90
56298;DHT22;42208;6.376;-10.782;2023-03-13T02:41:33;26.60;99.90
56298;DHT22;42208;6.376;-10.782;2023-03-13T02:44:01;26.60;99.90
56298;DHT22;42208;6.376;-10.782;2023-03-13T02:46:30;26.60;99.90
56298;DHT22;42208;6.376;-10.782;2023-03-13T02:49:06;26.60;99.90
56298;DHT22;42208;6.376;-10.782;2023-03-13T02:51:44;26.60;99.90
56298;DHT22;42208;6.376;-10.782;2023-03-13T02:54:27;26.60;99.90
56298;DHT22;42208;6.376;-10.782;2023-03-13T02:57:00;26.70;99.90
56298;DHT22;42208;6.376;-10.782;2023-03-13T02:59:30;26.70;99.90
56298;DHT22;42208;6.376;-10.782;2023-03-13T03:01:59;26.70;99.90
56298;DHT22;42208;6.376;-10.782;2023-03-13T03:04:27;26.70;99.90
56298;DHT22;42208;6.376;-10.782;2023-03-13T03:06:56;26.70;99.90
56298;DHT22;42208;6.376;-10.782;2023-03-13T03:09:24;26.70;99.90
56298;DHT22;42208;6.376;-10.782;2023-03-13T03:11:57;26.70;99.90
56298;DHT22;42208;6.376;-10.782;2023-03-13T03:14:28;26.70;99.90
56298;DHT22;42208;6.376;-10.782;2023-03-13T03:16:56;26.70;99.90
56298;DHT22;42208;6.376;-10.782;2023-03-13T03:19:26;26.70;99.90
56298;DHT22;42208;6.376;-10.782;2023-03-13T03:21:54;26.80;99.90
56298;DHT22;42208;6.376;-10.782;2023-03-13T03:24:22;26.80;99.90
56298;DHT22;42208;6.376;-10.782;2023-03-13T03:26:51;26.80;99.90
56298;DHT22;42208;6.376;-10.782;2023-03-13T03:29:24;26.80;99.90
56298;DHT22;42208;6.376;-10.782;2023-03-13T03:31:54;26.70;99.90
56298;DHT22;42208;6.376;-10.782;2023-03-13T03:34:23;26.80;99.90
56298;DHT22;42208;6.376;-10.782;2023-03-13T03:36:52;26.70;99.90
56298;DHT22;42208;6.376;-10.782;2023-03-13T03:39:20;26.70;99.90
56298;DHT22;42208;6.376;-10.782;2023-03-13T03:41:49;26.70;99.90
56298;DHT22;42208;6.376;-10.782;2023-03-13T03:44:17;26.70;99.90
56298;DHT22;42208;6.376;-10.782;2023-03-13T03:46:52;26.70;99.90
56298;DHT22;42208;6.376;-10.782;2023-03-13T03:49:22;26.80;99.90
56298;DHT22;42208;6.376;-10.782;2023-03-13T03:51:50;26.70;99.90
56298;DHT22;42208;6.376;-10.782;2023-03-13T03:54:25;26.70;99.90
56298;DHT22;42208;6.376;-10.782;2023-03-13T03:56:54;26.70;99.90
56298;DHT22;42208;6.376;-10.782;2023-03-13T03:59:22;26.80;99.90
56298;DHT22;42208;6.376;-10.782;2023-03-13T04:02:00;26.80;99.90
56298;DHT22;42208;6.376;-10.782;2023-03-13T04:04:30;26.70;99.90
56298;DHT22;42208;6.376;-10.782;2023-03-13T04:07:09;26.70;99.90
56298;DHT22;42208;6.376;-10.782;2023-03-13T04:09:39;26.70;99.90
56298;DHT22;42208;6.376;-10.782;2023-03-13T04:12:10;26.70;99.90
56298;DHT22;42208;6.376;-10.782;2023-03-13T04:14:42;26.80;99.90
56298;DHT22;42208;6.376;-10.782;2023-03-13T04:17:13;26.70;99.90
56298;DHT22;42208;6.376;-10.782;2023-03-13T04:19:43;26.70;99.90
56298;DHT22;42208;6.376;-10.782;2023-03-13T04:22:11;26.80;99.90
56298;DHT22;42208;6.376;-10.782;2023-03-13T04:24:46;26.80;99.90
56298;DHT22;42208;6.376;-10.782;2023-03-13T04:27:14;26.80;99.90
56298;DHT22;42208;6.376;-10.782;2023-03-13T04:29:45;26.80;99.90
56298;DHT22;42208;6.376;-10.782;2023-03-13T04:32:40;26.70;99.90
56298;DHT22;42208;6.376;-10.782;2023-03-13T04:35:24;26.80;99.90
56298;DHT22;42208;6.376;-10.782;2023-03-13T04:38:12;26.80;99.90
56298;DHT22;42208;6.376;-10.782;2023-03-13T04:40:47;26.80;99.90
56298;DHT22;42208;6.376;-10.782;2023-03-13T04:43:31;26.80;99.90
56298;DHT22;42208;6.376;-10.782;2023-03-13T04:46:26;26.80;99.90
56298;DHT22;42208;6.376;-10.782;2023-03-13T04:49:33;26.70;99.90
56298;DHT22;42208;6.376;-10.782;2023-03-13T04:52:19;26.70;99.90
56298;DHT22;42208;6.376;-10.782;2023-03-13T04:55:10;26.70;99.90
56298;DHT22;42208;6.376;-10.782;2023-03-13T04:57:55;26.70;99.90
56298;DHT22;42208;6.376;-10.782;2023-03-13T05:00:46;26.70;99.90
56298;DHT22;42208;6.376;-10.782;2023-03-13T05:03:37;26.70;99.90
56298;DHT22;42208;6.376;-10.782;2023-03-13T05:06:16;26.70;99.90
56298;DHT22;42208;6.376;-10.782;2023-03-13T05:09:05;26.70;99.90
56298;DHT22;42208;6.376;-10.782;2023-03-13T05:11:52;26.70;99.90
56298;DHT22;42208;6.376;-10.782;2023-03-13T05:14:44;26.60;99.90
56298;DHT22;42208;6.376;-10.782;2023-03-13T05:17:41;26.60;99.90
56298;DHT22;42208;6.376;-10.782;2023-03-13T05:20:27;26.50;99.90
56298;DHT22;42208;6.376;-10.782;2023-03-13T05:23:10;26.40;99.90
56298;DHT22;42208;6.376;-10.782;2023-03-13T05:26:13;26.40;99.90
56298;DHT22;42208;6.376;-10.782;2023-03-13T05:29:00;26.30;99.90
56298;DHT22;42208;6.376;-10.782;2023-03-13T05:31:47;26.30;99.90
56298;DHT22;42208;6.376;-10.782;2023-03-13T05:34:35;26.30;99.90
56298;DHT22;42208;6.376;-10.782;2023-03-13T05:37:11;26.30;99.90
56298;DHT22;42208;6.376;-10.782;2023-03-13T05:40:00;26.20;99.90
56298;DHT22;42208;6.376;-10.782;2023-03-13T05:42:50;26.20;99.90
56298;DHT22;42208;6.376;-10.782;2023-03-13T05:45:42;26.20;99.90
56298;DHT22;42208;6.376;-10.782;2023-03-13T05:48:23;26.20;99.90
56298;DHT22;42208;6.376;-10.782;2023-03-13T05:51:23;26.20;99.90
56298;DHT22;42208;6.376;-10.782;2023-03-13T05:54:10;26.20;99.90
56298;DHT22;42208;6.376;-10.782;2023-03-13T05:57:19;26.20;99.90
56298;DHT22;42208;6.376;-10.782;2023-03-13T06:00:06;26.10;99.90
56298;DHT22;42208;6.376;-10.782;2023-03-13T06:02:52;26.10;99.90
56298;DHT22;42208;6.376;-10.782;2023-03-13T06:05:28;26.10;99.90
56298;DHT22;42208;6.376;-10.782;2023-03-13T06:07:57;26.10;99.90
56298;DHT22;42208;6.376;-10.782;2023-03-13T06:10:26;26.10;99.90
56298;DHT22;42208;6.376;-10.782;2023-03-13T06:12:55;26.00;99.90
56298;DHT22;42208;6.376;-10.782;2023-03-13T06:15:27;26.00;99.90
56298;DHT22;42208;6.376;-10.782;2023-03-13T06:18:01;26.00;99.90
56298;DHT22;42208;6.376;-10.782;2023-03-13T06:20:30;26.00;99.90
56298;DHT22;42208;6.376;-10.782;2023-03-13T06:22:58;26.00;99.90
56298;DHT22;42208;6.376;-10.782;2023-03-13T06:25:26;26.00;99.90
56298;DHT22;42208;6.376;-10.782;2023-03-13T06:27:55;26.00;99.90
56298;DHT22;42208;6.376;-10.782;2023-03-13T06:30:23;26.00;99.90
56298;DHT22;42208;6.376;-10.782;2023-03-13T06:32:51;26.00;99.90
56298;DHT22;42208;6.376;-10.782;2023-03-13T06:35:20;25.90;99.90
56298;DHT22;42208;6.376;-10.782;2023-03-13T06:37:48;26.00;99.90
56298;DHT22;42208;6.376;-10.782;2023-03-13T06:40:16;25.90;99.90
56298;DHT22;42208;6.376;-10.782;2023-03-13T06:42:45;25.90;99.90
56298;DHT22;42208;6.376;-10.782;2023-03-13T06:45:13;25.90;99.90
56298;DHT22;42208;6.376;-10.782;2023-03-13T06:47:42;25.90;99.90
56298;DHT22;42208;6.376;-10.782;2023-03-13T06:50:10;25.90;99.90
56298;DHT22;42208;6.376;-10.782;2023-03-13T06:52:38;25.90;99.90
56298;DHT22;42208;6.376;-10.782;2023-03-13T06:55:11;25.90;99.90
56298;DHT22;42208;6.376;-10.782;2023-03-13T06:57:40;25.90;99.90
56298;DHT22;42208;6.376;-10.782;2023-03-13T07:00:10;25.90;99.90
56298;DHT22;42208;6.376;-10.782;2023-03-13T07:02:38;25.90;99.90
56298;DHT22;42208;6.376;-10.782;2023-03-13T07:05:07;25.90;99.90
56298;DHT22;42208;6.376;-10.782;2023-03-13T07:07:35;25.90;99.90
56298;DHT22;42208;6.376;-10.782;2023-03-13T07:10:04;25.80;99.90
56298;DHT22;42208;6.376;-10.782;2023-03-13T07:12:34;25.80;99.90
56298;DHT22;42208;6.376;-10.782;2023-03-13T07:15:03;25.80;99.90
56298;DHT22;42208;6.376;-10.782;2023-03-13T07:17:32;25.80;99.90
56298;DHT22;42208;6.376;-10.782;2023-03-13T07:20:00;25.90;99.90
56298;DHT22;42208;6.376;-10.782;2023-03-13T07:22:29;25.90;99.90
56298;DHT22;42208;6.376;-10.782;2023-03-13T07:24:57;25.80;99.90
56298;DHT22;42208;6.376;-10.782;2023-03-13T07:27:26;25.80;99.90
56298;DHT22;42208;6.376;-10.782;2023-03-13T07:29:54;25.80;99.90
56298;DHT22;42208;6.376;-10.782;2023-03-13T07:32:23;25.90;99.90
56298;DHT22;42208;6.376;-10.782;2023-03-13T07:34:51;25.90;99.90
56298;DHT22;42208;6.376;-10.782;2023-03-13T07:37:19;25.90;99.90
56298;DHT22;42208;6.376;-10.782;2023-03-13T07:39:48;25.90;99.90
56298;DHT22;42208;6.376;-10.782;2023-03-13T07:42:16;25.90;99.90
56298;DHT22;42208;6.376;-10.782;2023-03-13T07:44:45;25.90;99.90
56298;DHT22;42208;6.376;-10.782;2023-03-13T07:47:13;25.90;99.90
56298;DHT22;42208;6.376;-10.782;2023-03-13T07:49:41;25.90;99.90
56298;DHT22;42208;6.376;-10.782;2023-03-13T07:52:11;26.00;99.90
56298;DHT22;42208;6.376;-10.782;2023-03-13T07:54:40;26.00;99.90
56298;DHT22;42208;6.376;-10.782;2023-03-13T07:57:08;26.10;99.90
56298;DHT22;42208;6.376;-10.782;2023-03-13T07:59:37;26.10;99.90
56298;DHT22;42208;6.376;-10.782;2023-03-13T08:02:07;26.10;99.90
56298;DHT22;42208;6.376;-10.782;2023-03-13T08:04:36;26.10;99.90
56298;DHT22;42208;6.376;-10.782;2023-03-13T08:07:10;26.20;99.90
56298;DHT22;42208;6.376;-10.782;2023-03-13T08:09:39;26.20;99.90
56298;DHT22;42208;6.376;-10.782;2023-03-13T08:12:07;26.30;99.90
56298;DHT22;42208;6.376;-10.782;2023-03-13T08:14:36;26.30;99.90
56298;DHT22;42208;6.376;-10.782;2023-03-13T08:17:05;26.30;99.90
56298;DHT22;42208;6.376;-10.782;2023-03-13T08:19:33;26.40;99.90
56298;DHT22;42208;6.376;-10.782;2023-03-13T08:22:01;26.50;99.90
56298;DHT22;42208;6.376;-10.782;2023-03-13T08:24:30;26.60;99.90
56298;DHT22;42208;6.376;-10.782;2023-03-13T08:26:58;26.70;99.90
56298;DHT22;42208;6.376;-10.782;2023-03-13T08:29:26;26.70;99.90
56298;DHT22;42208;6.376;-10.782;2023-03-13T08:31:55;26.70;99.90
56298;DHT22;42208;6.376;-10.782;2023-03-13T08:34:23;26.80;99.90
56298;DHT22;42208;6.376;-10.782;2023-03-13T08:36:52;26.90;99.90
56298;DHT22;42208;6.376;-10.782;2023-03-13T08:39:20;26.80;99.90
56298;DHT22;42208;6.376;-10.782;2023-03-13T08:41:49;26.80;99.90
56298;DHT22;42208;6.376;-10.782;2023-03-13T08:44:18;26.90;99.90
56298;DHT22;42208;6.376;-10.782;2023-03-13T08:46:47;26.90;99.90
56298;DHT22;42208;6.376;-10.782;2023-03-13T08:49:15;27.00;99.90
56298;DHT22;42208;6.376;-10.782;2023-03-13T08:51:44;27.00;99.90
56298;DHT22;42208;6.376;-10.782;2023-03-13T08:54:12;27.00;99.90
56298;DHT22;42208;6.376;-10.782;2023-03-13T08:56:41;27.10;99.90
56298;DHT22;42208;6.376;-10.782;2023-03-13T08:59:09;27.10;99.90
56298;DHT22;42208;6.376;-10.782;2023-03-13T09:01:38;27.20;99.90
56298;DHT22;42208;6.376;-10.782;2023-03-13T09:04:06;27.30;99.90
56298;DHT22;42208;6.376;-10.782;2023-03-13T09:06:36;27.40;99.90
56298;DHT22;42208;6.376;-10.782;2023-03-13T09:09:05;27.40;99.90
56298;DHT22;42208;6.376;-10.782;2023-03-13T09:11:36;27.50;99.90
56298;DHT22;42208;6.376;-10.782;2023-03-13T09:14:05;27.50;99.90
56298;DHT22;42208;6.376;-10.782;2023-03-13T09:16:34;27.60;99.90
56298;DHT22;42208;6.376;-10.782;2023-03-13T09:19:02;27.60;99.90
56298;DHT22;42208;6.376;-10.782;2023-03-13T09:21:32;27.70;99.90
56298;DHT22;42208;6.376;-10.782;2023-03-13T09:24:01;27.70;99.90
56298;DHT22;42208;6.376;-10.782;2023-03-13T09:26:29;27.70;99.90
56298;DHT22;42208;6.376;-10.782;2023-03-13T09:28:57;27.80;99.90
56298;DHT22;42208;6.376;-10.782;2023-03-13T09:31:28;27.80;99.90
56298;DHT22;42208;6.376;-10.782;2023-03-13T09:33:58;27.80;99.90
56298;DHT22;42208;6.376;-10.782;2023-03-13T09:36:27;27.90;99.90
56298;DHT22;42208;6.376;-10.782;2023-03-13T09:38:57;27.90;99.90
56298;DHT22;42208;6.376;-10.782;2023-03-13T09:41:35;27.90;99.90
56298;DHT22;42208;6.376;-10.782;2023-03-13T09:47:04;28.00;99.90
56298;DHT22;42208;6.376;-10.782;2023-03-13T09:49:43;28.10;99.90
56298;DHT22;42208;6.376;-10.782;2023-03-13T09:54:56;28.20;99.90
56298;DHT22;42208;6.376;-10.782;2023-03-13T10:00:15;28.40;99.90
56298;DHT22;42208;6.376;-10.782;2023-03-13T10:02:48;28.50;99.90
56298;DHT22;42208;6.376;-10.782;2023-03-13T10:05:24;28.60;99.90
56298;DHT22;42208;6.376;-10.782;2023-03-13T10:08:38;28.70;99.90
56298;DHT22;42208;6.376;-10.782;2023-03-13T10:14:09;28.90;99.90
56298;DHT22;42208;6.376;-10.782;2023-03-13T10:19:11;28.80;99.90
56298;DHT22;42208;6.376;-10.782;2023-03-13T10:21:42;28.90;99.90
56298;DHT22;42208;6.376;-10.782;2023-03-13T10:24:36;28.90;99.90
56298;DHT22;42208;6.376;-10.782;2023-03-13T10:27:11;29.00;99.90
56298;DHT22;42208;6.376;-10.782;2023-03-13T10:42:31;29.10;99.90
56298;DHT22;42208;6.376;-10.782;2023-03-13T10:45:03;29.50;99.90
56298;DHT22;42208;6.376;-10.782;2023-03-13T10:47:33;29.70;99.90
56298;DHT22;42208;6.376;-10.782;2023-03-13T10:50:03;29.80;99.90
56298;DHT22;42208;6.376;-10.782;2023-03-13T10:52:43;30.00;99.90
56298;DHT22;42208;6.376;-10.782;2023-03-13T10:55:23;29.80;99.90
56298;DHT22;42208;6.376;-10.782;2023-03-13T10:57:54;29.90;99.90
56298;DHT22;42208;6.376;-10.782;2023-03-13T11:00:34;29.90;99.90
56298;DHT22;42208;6.376;-10.782;2023-03-13T11:03:23;29.80;99.90
56298;DHT22;42208;6.376;-10.782;2023-03-13T11:06:01;29.70;99.90
56298;DHT22;42208;6.376;-10.782;2023-03-13T11:08:34;29.70;99.90
56298;DHT22;42208;6.376;-10.782;2023-03-13T11:11:05;29.60;99.90
56298;DHT22;42208;6.376;-10.782;2023-03-13T11:13:42;29.50;99.90
56298;DHT22;42208;6.376;-10.782;2023-03-13T11:27:26;29.60;99.90
56298;DHT22;42208;6.376;-10.782;2023-03-13T11:33:03;29.40;99.90
56298;DHT22;42208;6.376;-10.782;2023-03-13T11:35:48;29.30;99.90
56298;DHT22;42208;6.376;-10.782;2023-03-13T11:38:37;29.30;99.90
56298;DHT22;42208;6.376;-10.782;2023-03-13T11:43:46;29.20;99.90
56298;DHT22;42208;6.376;-10.782;2023-03-13T11:57:28;29.30;99.90
56298;DHT22;42208;6.376;-10.782;2023-03-13T12:05:14;29.20;99.90
56298;DHT22;42208;6.376;-10.782;2023-03-13T12:08:00;29.20;99.90
56298;DHT22;42208;6.376;-10.782;2023-03-13T12:10:34;29.20;99.90
56298;DHT22;42208;6.376;-10.782;2023-03-13T12:13:22;29.20;99.90
56298;DHT22;42208;6.376;-10.782;2023-03-13T12:16:02;29.30;99.90
56298;DHT22;42208;6.376;-10.782;2023-03-13T12:18:40;29.20;99.90
56298;DHT22;42208;6.376;-10.782;2023-03-13T12:21:27;29.30;99.90
56298;DHT22;42208;6.376;-10.782;2023-03-13T12:29:30;29.20;99.90
56298;DHT22;42208;6.376;-10.782;2023-03-13T12:32:12;29.20;99.90
56298;DHT22;42208;6.376;-10.782;2023-03-13T12:37:38;29.20;99.90
56298;DHT22;42208;6.376;-10.782;2023-03-13T12:43:22;29.10;99.90
56298;DHT22;42208;6.376;-10.782;2023-03-13T12:46:20;29.10;99.90
56298;DHT22;42208;6.376;-10.782;2023-03-13T13:00:20;29.30;99.90
56298;DHT22;42208;6.376;-10.782;2023-03-13T13:03:26;29.30;99.90
56298;DHT22;42208;6.376;-10.782;2023-03-13T13:06:07;29.30;99.90
56298;DHT22;42208;6.376;-10.782;2023-03-13T13:08:46;29.20;99.90
56298;DHT22;42208;6.376;-10.782;2023-03-13T13:16:56;29.30;99.90
56298;DHT22;42208;6.376;-10.782;2023-03-13T13:25:00;29.50;99.90
56298;DHT22;42208;6.376;-10.782;2023-03-13T13:38:49;30.10;99.90
56298;DHT22;42208;6.376;-10.782;2023-03-13T13:43:48;30.10;99.90
56298;DHT22;42208;6.376;-10.782;2023-03-13T13:46:25;30.00;99.90
56298;DHT22;42208;6.376;-10.782;2023-03-13T13:51:38;30.00;99.90
56298;DHT22;42208;6.376;-10.782;2023-03-13T13:57:33;29.70;99.90
56298;DHT22;42208;6.376;-10.782;2023-03-13T14:00:15;29.70;99.90
56298;DHT22;42208;6.376;-10.782;2023-03-13T14:02:53;29.80;99.90
56298;DHT22;42208;6.376;-10.782;2023-03-13T14:05:30;29.80;99.90
56298;DHT22;42208;6.376;-10.782;2023-03-13T14:08:28;29.50;99.90
56298;DHT22;42208;6.376;-10.782;2023-03-13T14:14:09;29.70;99.90
56298;DHT22;42208;6.376;-10.782;2023-03-13T14:16:38;29.90;99.90
56298;DHT22;42208;6.376;-10.782;2023-03-13T14:19:40;30.10;99.90
56298;DHT22;42208;6.376;-10.782;2023-03-13T14:22:10;30.40;99.90
56298;DHT22;42208;6.376;-10.782;2023-03-13T14:24:39;30.40;99.90
56298;DHT22;42208;6.376;-10.782;2023-03-13T14:27:18;30.00;99.90
56298;DHT22;42208;6.376;-10.782;2023-03-13T14:30:04;29.90;99.90
56298;DHT22;42208;6.376;-10.782;2023-03-13T14:32:33;29.70;99.90
56298;DHT22;42208;6.376;-10.782;2023-03-13T14:35:03;29.60;99.90
56298;DHT22;42208;6.376;-10.782;2023-03-13T14:37:42;29.60;99.90
56298;DHT22;42208;6.376;-10.782;2023-03-13T14:40:28;29.60;99.90
56298;DHT22;42208;6.376;-10.782;2023-03-13T14:43:01;29.60;99.90
56298;DHT22;42208;6.376;-10.782;2023-03-13T14:45:32;29.50;99.90
56298;DHT22;42208;6.376;-10.782;2023-03-13T14:48:48;29.50;99.90
56298;DHT22;42208;6.376;-10.782;2023-03-13T14:50:59;29.40;99.90
56298;DHT22;42208;6.376;-10.782;2023-03-13T14:53:53;29.50;99.90
56298;DHT22;42208;6.376;-10.782;2023-03-13T14:56:34;29.40;99.90
56298;DHT22;42208;6.376;-10.782;2023-03-13T14:59:23;29.30;99.90
56298;DHT22;42208;6.376;-10.782;2023-03-13T15:07:23;29.20;99.90
56298;DHT22;42208;6.376;-10.782;2023-03-13T15:09:52;29.40;99.90
56298;DHT22;42208;6.376;-10.782;2023-03-13T15:12:22;29.70;99.90
56298;DHT22;42208;6.376;-10.782;2023-03-13T15:14:51;30.00;99.90
56298;DHT22;42208;6.376;-10.782;2023-03-13T15:17:21;30.30;99.90
56298;DHT22;42208;6.376;-10.782;2023-03-13T15:19:57;30.30;99.90
56298;DHT22;42208;6.376;-10.782;2023-03-13T15:22:35;30.30;99.90
56298;DHT22;42208;6.376;-10.782;2023-03-13T15:25:24;30.30;99.90
56298;DHT22;42208;6.376;-10.782;2023-03-13T15:27:52;30.20;99.90
56298;DHT22;42208;6.376;-10.782;2023-03-13T15:30:24;30.20;99.90
56298;DHT22;42208;6.376;-10.782;2023-03-13T15:32:52;30.30;99.90
56298;DHT22;42208;6.376;-10.782;2023-03-13T15:35:31;30.60;99.90
56298;DHT22;42208;6.376;-10.782;2023-03-13T15:38:01;31.00;99.90
56298;DHT22;42208;6.376;-10.782;2023-03-13T15:40:30;31.30;99.90
56298;DHT22;42208;6.376;-10.782;2023-03-13T15:42:58;31.50;99.90
56298;DHT22;42208;6.376;-10.782;2023-03-13T15:45:26;31.50;99.90
56298;DHT22;42208;6.376;-10.782;2023-03-13T15:47:55;31.70;99.90
56298;DHT22;42208;6.376;-10.782;2023-03-13T15:50:24;32.00;99.90
56298;DHT22;42208;6.376;-10.782;2023-03-13T15:52:53;31.80;99.90
56298;DHT22;42208;6.376;-10.782;2023-03-13T15:55:27;31.80;99.90
56298;DHT22;42208;6.376;-10.782;2023-03-13T15:57:56;32.00;99.90
56298;DHT22;42208;6.376;-10.782;2023-03-13T16:00:26;32.20;99.90
56298;DHT22;42208;6.376;-10.782;2023-03-13T16:02:54;32.10;99.90
56298;DHT22;42208;6.376;-10.782;2023-03-13T16:05:24;32.40;99.90
56298;DHT22;42208;6.376;-10.782;2023-03-13T16:07:52;32.40;99.90
56298;DHT22;42208;6.376;-10.782;2023-03-13T16:10:26;32.40;99.90
56298;DHT22;42208;6.376;-10.782;2023-03-13T16:12:55;32.60;99.90
56298;DHT22;42208;6.376;-10.782;2023-03-13T16:15:23;32.60;99.90
56298;DHT22;42208;6.376;-10.782;2023-03-13T16:17:52;32.50;99.90
56298;DHT22;42208;6.376;-10.782;2023-03-13T16:20:21;32.60;99.90
56298;DHT22;42208;6.376;-10.782;2023-03-13T16:22:50;32.90;99.90
56298;DHT22;42208;6.376;-10.782;2023-03-13T16:25:21;33.20;99.90
56298;DHT22;42208;6.376;-10.782;2023-03-13T16:27:49;33.40;99.90
56298;DHT22;42208;6.376;-10.782;2023-03-13T16:32:50;33.30;99.90
56298;DHT22;42208;6.376;-10.782;2023-03-13T16:35:19;33.40;99.90
56298;DHT22;42208;6.376;-10.782;2023-03-13T16:37:47;33.40;99.90
56298;DHT22;42208;6.376;-10.782;2023-03-13T16:40:18;33.50;99.90
56298;DHT22;42208;6.376;-10.782;2023-03-13T16:42:48;33.60;99.90
56298;DHT22;42208;6.376;-10.782;2023-03-13T16:56:52;33.90;99.90
56298;DHT22;42208;6.376;-10.782;2023-03-13T16:59:20;33.10;99.90
56298;DHT22;42208;6.376;-10.782;2023-03-13T17:01:49;33.20;99.90
56298;DHT22;42208;6.376;-10.782;2023-03-13T17:04:17;33.20;99.90
56298;DHT22;42208;6.376;-10.782;2023-03-13T17:06:45;32.70;99.90
56298;DHT22;42208;6.376;-10.782;2023-03-13T17:13:08;32.10;99.90
56298;DHT22;42208;6.376;-10.782;2023-03-13T17:15:37;32.10;99.90
56298;DHT22;42208;6.376;-10.782;2023-03-13T17:18:05;31.80;99.90
56298;DHT22;42208;6.376;-10.782;2023-03-13T17:20:34;31.40;99.90
56298;DHT22;42208;6.376;-10.782;2023-03-13T17:23:36;31.70;99.90
56298;DHT22;42208;6.376;-10.782;2023-03-13T17:26:08;31.80;99.90
56298;DHT22;42208;6.376;-10.782;2023-03-13T17:28:36;32.30;99.90
56298;DHT22;42208;6.376;-10.782;2023-03-13T17:35:01;32.80;99.90
56298;DHT22;42208;6.376;-10.782;2023-03-13T17:37:32;33.10;99.90
56298;DHT22;42208;6.376;-10.782;2023-03-13T17:40:05;33.10;99.90
56298;DHT22;42208;6.376;-10.782;2023-03-13T17:42:37;32.90;99.90
56298;DHT22;42208;6.376;-10.782;2023-03-13T17:45:05;32.80;99.90
56298;DHT22;42208;6.376;-10.782;2023-03-13T17:47:34;32.90;99.90
56298;DHT22;42208;6.376;-10.782;2023-03-13T17:50:05;32.90;99.90
56298;DHT22;42208;6.376;-10.782;2023-03-13T17:52:40;32.60;99.90
56298;DHT22;42208;6.376;-10.782;2023-03-13T17:55:08;32.70;99.90
56298;DHT22;42208;6.376;-10.782;2023-03-13T17:57:37;32.70;99.90
56298;DHT22;42208;6.376;-10.782;2023-03-13T18:00:32;32.70;99.90
56298;DHT22;42208;6.376;-10.782;2023-03-13T18:03:00;32.50;99.90
56298;DHT22;42208;6.376;-10.782;2023-03-13T18:05:29;32.40;99.90
56298;DHT22;42208;6.376;-10.782;2023-03-13T18:07:57;32.00;99.90
56298;DHT22;42208;6.376;-10.782;2023-03-13T18:10:28;31.70;99.90
56298;DHT22;42208;6.376;-10.782;2023-03-13T18:12:56;31.70;99.90
56298;DHT22;42208;6.376;-10.782;2023-03-13T18:15:25;31.50;99.90
56298;DHT22;42208;6.376;-10.782;2023-03-13T18:17:53;31.40;99.90
56298;DHT22;42208;6.376;-10.782;2023-03-13T18:20:28;31.20;99.90